Time;durP1;ratioP1;P1;durP2;ratioP2;P2;SDS_P1;SDS_P2;PMS_P1;PMS_P2;Temp;Humidity;BMP_temperature;BMP_pressure;BME280_temperature;BME280_humidity;BME280_pressure;Samples;Min_cycle;Max_cycle;Signal;HPM_P1;HPM_P2
2022/05/19 00:02:07;;;;;;;17.90;9.65;;;;;;;10.75;63.27;101138.45;1766795;80;21761;-70
2022/05/19 00:04:34;;;;;;;19.37;10.48;;;;;;;10.73;63.37;101140.58;1766562;80;21054;-70
2022/05/19 00:07:01;;;;;;;16.17;10.25;;;;;;;10.71;63.40;101141.34;1765682;80;21069;-70
2022/05/19 00:09:29;;;;;;;15.70;10.30;;;;;;;10.69;63.47;101137.55;1765225;80;21049;-70
2022/05/19 00:11:58;;;;;;;17.32;10.88;;;;;;;10.67;63.58;101141.02;1764384;80;22154;-70
2022/05/19 00:14:24;;;;;;;16.52;10.43;;;;;;;10.64;63.59;101143.37;1746177;80;21099;-70
2022/05/19 00:16:56;;;;;;;12.98;10.05;;;;;;;10.64;63.58;101142.03;1757470;81;21018;-70
2022/05/19 00:19:20;;;;;;;14.13;9.43;;;;;;;10.60;63.50;101138.23;1761456;80;21042;-70
2022/05/19 00:21:49;;;;;;;13.72;9.33;;;;;;;10.58;63.52;101134.45;1760421;80;20990;-71
2022/05/19 00:24:16;;;;;;;17.65;10.58;;;;;;;10.57;63.53;101135.52;1764930;80;20955;-70
2022/05/19 00:26:43;;;;;;;14.30;10.15;;;;;;;10.57;63.52;101135.52;1762781;80;21609;-70
2022/05/19 00:29:10;;;;;;;15.98;10.30;;;;;;;10.55;63.54;101133.59;1764277;80;21482;-70
2022/05/19 00:31:37;;;;;;;18.40;10.48;;;;;;;10.54;63.58;101135.47;1749600;80;21007;-70
2022/05/19 00:34:06;;;;;;;15.13;9.80;;;;;;;10.51;63.61;101136.48;1764965;80;21419;-70
2022/05/19 00:36:37;;;;;;;15.85;9.70;;;;;;;10.50;63.65;101133.53;1766236;80;21394;-69
2022/05/19 00:39:06;;;;;;;16.45;10.30;;;;;;;10.48;63.72;101135.09;1766570;80;21233;-69
2022/05/19 00:41:33;;;;;;;16.00;10.70;;;;;;;10.47;63.86;101134.82;1765743;80;20990;-69
2022/05/19 00:44:04;;;;;;;17.23;11.00;;;;;;;10.45;64.07;101137.44;1763703;80;21073;-68
2022/05/19 00:46:46;;;;;;;16.93;10.48;;;;;;;10.42;64.21;101141.92;1764811;80;21025;-69
2022/05/19 00:49:26;;;;;;;14.85;10.43;;;;;;;10.41;64.32;101151.00;1761876;80;20955;-70
2022/05/19 00:52:07;;;;;;;15.43;10.85;;;;;;;10.39;64.47;101148.55;1763972;80;21152;-69
2022/05/19 00:54:49;;;;;;;16.48;11.30;;;;;;;10.37;64.57;101142.66;1759208;80;20998;-69
2022/05/19 00:57:24;;;;;;;17.30;11.28;;;;;;;10.33;64.71;101143.67;1762338;81;21013;-69
2022/05/19 01:00:01;;;;;;;15.93;10.15;;;;;;;10.31;64.78;101140.95;1764192;80;20967;-69
2022/05/19 01:02:33;;;;;;;15.75;11.03;;;;;;;10.28;64.83;101144.91;1763370;80;21054;-69
2022/05/19 01:05:09;;;;;;;13.30;10.48;;;;;;;10.24;65.04;101148.27;1763698;80;21182;-69
2022/05/19 01:08:00;;;;;;;15.35;9.20;;;;;;;10.19;65.34;101150.31;1763226;80;20999;-69
2022/05/19 01:10:28;;;;;;;14.63;9.93;;;;;;;10.16;65.66;101141.97;1764070;80;21030;-69
2022/05/19 01:12:56;;;;;;;13.90;8.63;;;;;;;10.09;66.14;101149.59;1763276;80;21097;-69
2022/05/19 01:15:23;;;;;;;10.82;8.05;;;;;;;10.04;66.41;101148.19;1767152;80;20947;-69
2022/05/19 01:17:50;;;;;;;11.08;8.13;;;;;;;9.98;66.71;101143.80;1760573;80;21576;-68
2022/05/19 01:20:24;;;;;;;9.98;7.28;;;;;;;9.94;67.02;101149.86;1759976;80;21042;-69
2022/05/19 01:22:56;;;;;;;9.90;6.72;;;;;;;9.89;67.17;101153.75;1760817;80;21608;-69
2022/05/19 01:25:39;;;;;;;;;;;;;;;9.83;67.31;101148.83;1762396;80;20932;-69
2022/05/19 01:28:07;;;;;;;9.03;7.12;;;;;;;9.78;67.47;101151.42;1760169;80;20157;-69
2022/05/19 01:30:34;;;;;;;8.65;7.25;;;;;;;9.72;67.66;101148.36;1765931;80;21502;-69
2022/05/19 01:33:02;;;;;;;9.13;6.72;;;;;;;9.68;67.84;101154.69;1765512;80;21057;-69
2022/05/19 01:35:33;;;;;;;12.07;7.80;;;;;;;9.66;67.96;101154.10;1764030;80;21145;-69
2022/05/19 01:38:01;;;;;;;10.90;7.25;;;;;;;9.62;68.00;101147.10;1764440;80;21037;-69
2022/05/19 01:40:50;;;;;;;11.05;7.10;;;;;;;9.60;68.01;101147.05;1759535;80;21074;-69
2022/05/19 01:43:37;;;;;;;10.18;7.10;;;;;;;9.56;68.05;101152.04;1757451;80;21109;-69
2022/05/19 01:46:34;;;;;;;9.88;7.08;;;;;;;9.53;68.09;101157.03;1762295;80;20999;-70
2022/05/19 01:49:24;;;;;;;9.98;7.15;;;;;;;9.50;68.14;101154.31;1762018;80;20994;-70
2022/05/19 01:52:05;;;;;;;12.30;7.87;;;;;;;9.47;68.15;101154.78;1761595;80;21093;-68
2022/05/19 01:54:40;;;;;;;12.43;7.45;;;;;;;9.46;68.23;101155.83;1766644;80;21073;-71
2022/05/19 01:57:32;;;;;;;10.38;7.80;;;;;;;9.45;68.28;101155.55;1759083;80;21223;-69
2022/05/19 02:00:25;;;;;;;12.18;6.58;;;;;;;9.46;68.32;101155.02;1763213;80;21035;-69
2022/05/19 02:03:14;;;;;;;12.37;7.37;;;;;;;9.46;68.36;101161.69;1761972;80;20959;-69
2022/05/19 02:06:06;;;;;;;11.83;8.10;;;;;;;9.44;68.52;101163.24;1758510;80;20951;-70
2022/05/19 02:08:37;;;;;;;10.48;7.17;;;;;;;9.42;68.64;101164.55;1766046;80;21116;-70
2022/05/19 02:11:09;;;;;;;12.80;7.97;;;;;;;9.42;68.69;101172.02;1765643;80;21032;-69
2022/05/19 02:13:36;;;;;;;11.25;7.00;;;;;;;9.42;68.74;101174.69;1760380;80;21131;-69
2022/05/19 02:16:06;;;;;;;12.73;7.70;;;;;;;9.43;68.82;101171.48;1746666;80;21497;-69
2022/05/19 02:18:33;;;;;;;10.88;7.97;;;;;;;9.44;68.83;101177.91;1765386;80;21525;-69
2022/05/19 02:21:02;;;;;;;11.80;7.78;;;;;;;9.45;68.83;101174.74;1765848;80;21497;-69
2022/05/19 02:23:31;;;;;;;11.18;8.65;;;;;;;9.46;68.88;101173.16;1764053;80;21644;-70
2022/05/19 02:25:58;;;;;;;14.28;8.58;;;;;;;9.47;68.89;101176.11;1765631;80;21077;-69
2022/05/19 02:28:47;;;;;;;12.75;8.80;;;;;;;9.51;68.87;101183.11;1765687;80;21038;-70
2022/05/19 02:31:16;;;;;;;15.40;9.13;;;;;;;9.52;68.81;101184.76;1756542;80;21537;-70
2022/05/19 02:33:44;;;;;;;12.78;7.70;;;;;;;9.54;68.82;101182.15;1765623;80;20967;-69
2022/05/19 02:36:12;;;;;;;12.93;8.95;;;;;;;9.55;68.74;101181.09;1764990;80;21117;-70
2022/05/19 02:38:39;;;;;;;14.13;9.13;;;;;;;9.55;68.64;101182.43;1760442;80;21062;-70
2022/05/19 02:41:07;;;;;;;12.60;9.33;;;;;;;9.58;68.53;101186.49;1754499;80;20991;-70
2022/05/19 02:43:37;;;;;;;13.68;9.43;;;;;;;9.60;68.48;101189.72;1765107;80;20950;-70
2022/05/19 02:46:04;;;;;;;16.07;9.48;;;;;;;9.60;68.47;101191.05;1765841;80;20990;-70
2022/05/19 02:48:33;;;;;;;14.18;9.88;;;;;;;9.62;68.43;101188.44;1760360;80;21105;-70
2022/05/19 02:51:00;;;;;;;14.85;9.13;;;;;;;9.63;68.40;101193.25;1716744;82;21047;-70
2022/05/19 02:53:27;;;;;;;14.93;9.60;;;;;;;9.65;68.37;101193.03;1730640;82;21147;-69
2022/05/19 02:55:56;;;;;;;14.80;9.50;;;;;;;9.67;68.33;101189.58;1739806;82;20946;-70
2022/05/19 02:58:23;;;;;;;15.23;9.90;;;;;;;9.70;68.33;101195.26;1765674;80;21631;-69
2022/05/19 03:00:50;;;;;;;14.83;9.60;;;;;;;9.73;68.27;101200.13;1765829;80;21135;-70
2022/05/19 03:03:17;;;;;;;15.00;9.53;;;;;;;9.77;68.17;101197.30;1766771;80;20963;-69
2022/05/19 03:05:45;;;;;;;14.30;9.83;;;;;;;9.82;68.05;101197.91;1766054;80;21049;-69
2022/05/19 03:08:12;;;;;;;13.70;9.03;;;;;;;9.85;67.83;101198.25;1762977;80;21512;-70
2022/05/19 03:10:43;;;;;;;14.43;8.93;;;;;;;9.90;67.74;101200.20;1750840;80;20999;-69
2022/05/19 03:13:19;;;;;;;14.03;9.78;;;;;;;9.93;67.54;101198.39;1764438;80;21077;-69
2022/05/19 03:15:48;;;;;;;14.43;9.93;;;;;;;9.99;67.38;101204.65;1764015;80;20989;-70
2022/05/19 03:18:15;;;;;;;14.58;9.40;;;;;;;10.05;67.34;101203.70;1764819;80;21022;-70
2022/05/19 03:20:42;;;;;;;16.07;9.60;;;;;;;10.13;67.12;101202.51;1764834;80;20998;-69
2022/05/19 03:23:11;;;;;;;16.02;9.63;;;;;;;10.18;66.99;101203.95;1737430;80;21053;-70
2022/05/19 03:25:40;;;;;;;17.02;9.60;;;;;;;10.22;66.83;101197.89;1747139;80;21294;-70
2022/05/19 03:28:13;;;;;;;15.03;8.65;;;;;;;10.29;66.65;101199.11;1764816;80;21062;-69
2022/05/19 03:30:42;;;;;;;16.40;9.73;;;;;;;10.37;66.36;101200.60;1731076;82;21464;-69
2022/05/19 03:33:09;;;;;;;15.08;9.28;;;;;;;10.45;65.44;101201.53;1738906;82;21052;-69
2022/05/19 03:35:37;;;;;;;14.85;9.40;;;;;;;10.52;64.92;101203.00;1731293;82;21016;-69
2022/05/19 03:38:04;;;;;;;13.75;9.08;;;;;;;10.61;64.41;101205.29;1727410;81;21623;-69
2022/05/19 03:40:34;;;;;;;13.48;8.23;;;;;;;10.69;63.92;101211.56;1758471;80;21536;-69
2022/05/19 03:43:00;;;;;;;14.83;9.38;;;;;;;10.78;63.37;101208.25;1764977;80;21053;-69
2022/05/19 03:45:29;;;;;;;12.88;8.75;;;;;;;10.85;63.28;101202.74;1765690;80;21065;-69
2022/05/19 03:47:56;;;;;;;14.28;9.05;;;;;;;10.94;62.93;101205.30;1724874;82;21096;-69
2022/05/19 03:50:25;;;;;;;12.78;8.65;;;;;;;11.01;62.39;101210.48;1723820;81;21204;-69
2022/05/19 03:52:53;;;;;;;11.68;8.30;;;;;;;11.09;61.91;101214.60;1724923;81;21066;-69
2022/05/19 03:55:22;;;;;;;14.90;8.28;;;;;;;11.17;61.82;101218.22;1709802;82;21003;-70
2022/05/19 03:57:49;;;;;;;14.38;8.93;;;;;;;11.23;61.43;101218.05;1714899;82;21127;-69
2022/05/19 04:00:18;;;;;;;12.18;8.05;;;;;;;11.29;61.16;101216.27;1764127;80;21520;-69
2022/05/19 04:02:47;;;;;;;13.85;8.80;;;;;;;11.36;60.92;101222.25;1763366;80;21851;-69
2022/05/19 04:05:17;;;;;;;14.95;8.43;;;;;;;11.42;61.01;101217.27;1763544;80;21402;-70
2022/05/19 04:07:44;;;;;;;13.10;7.85;;;;;;;11.49;60.56;101214.41;1748540;80;20998;-69
2022/05/19 04:10:13;;;;;;;14.00;8.53;;;;;;;11.59;60.57;101225.25;1767190;80;21046;-69
2022/05/19 04:12:42;;;;;;;13.43;8.50;;;;;;;11.68;60.29;101221.09;1750532;80;21703;-69
2022/05/19 04:15:11;;;;;;;14.47;8.80;;;;;;;11.77;60.09;101224.13;1717704;82;21270;-69
2022/05/19 04:17:38;;;;;;;11.48;8.03;;;;;;;11.87;59.91;101228.30;1712424;82;21675;-70
2022/05/19 04:20:08;;;;;;;13.20;7.90;;;;;;;11.95;59.59;101226.54;1764310;80;20994;-69
2022/05/19 04:22:35;;;;;;;11.43;7.40;;;;;;;12.06;59.42;101229.34;1763558;80;20939;-69
2022/05/19 04:25:05;;;;;;;11.50;7.90;;;;;;;12.14;59.19;101236.41;1765252;80;21474;-69
2022/05/19 04:27:33;;;;;;;12.88;7.92;;;;;;;12.22;59.00;101235.14;1766120;80;21194;-69
2022/05/19 04:30:00;;;;;;;13.60;8.43;;;;;;;12.34;58.43;101245.20;1759832;80;20928;-69
2022/05/19 04:32:27;;;;;;;12.60;7.65;;;;;;;12.43;58.18;101240.98;1763935;80;21025;-69
2022/05/19 04:34:56;;;;;;;12.65;7.75;;;;;;;12.53;57.57;101239.47;1764162;80;20959;-69
2022/05/19 04:37:24;;;;;;;13.10;7.97;;;;;;;12.59;56.90;101242.48;1764374;80;21508;-69
2022/05/19 04:39:52;;;;;;;14.00;8.63;;;;;;;12.63;56.42;101243.05;1764745;80;21565;-69
2022/05/19 04:42:19;;;;;;;11.35;7.85;;;;;;;12.66;56.03;101243.08;1765859;80;20978;-69
2022/05/19 04:44:48;;;;;;;13.62;8.30;;;;;;;12.71;56.18;101246.36;1759133;80;21113;-69
2022/05/19 04:47:15;;;;;;;12.73;7.72;;;;;;;12.77;56.14;101242.12;1752907;81;21605;-69
2022/05/19 04:49:42;;;;;;;12.98;7.85;;;;;;;12.87;56.04;101246.77;1763650;81;20999;-69
2022/05/19 04:52:09;;;;;;;14.50;8.33;;;;;;;12.97;56.18;101245.52;1766110;80;21134;-69
2022/05/19 04:54:36;;;;;;;15.83;8.43;;;;;;;13.08;55.96;101244.52;1758963;81;21123;-69
2022/05/19 04:57:05;;;;;;;15.03;8.97;;;;;;;13.20;55.57;101247.03;1761181;80;21369;-69
2022/05/19 04:59:40;;;;;;;11.90;8.33;;;;;;;13.27;54.89;101248.98;1764676;80;21206;-69
2022/05/19 05:02:11;;;;;;;12.13;8.50;;;;;;;13.33;54.64;101250.64;1765894;80;21784;-69
2022/05/19 05:04:39;;;;;;;15.30;8.20;;;;;;;13.38;54.05;101243.16;1754158;81;21307;-70
2022/05/19 05:07:06;;;;;;;12.17;7.90;;;;;;;13.43;53.94;101242.39;1757779;80;21275;-70
2022/05/19 05:09:34;;;;;;;13.57;8.17;;;;;;;13.49;53.71;101243.50;1761084;80;21279;-69
2022/05/19 05:12:02;;;;;;;12.80;8.50;;;;;;;13.53;53.58;101245.13;1760311;81;21338;-69
2022/05/19 05:14:30;;;;;;;12.97;8.33;;;;;;;13.59;53.37;101245.44;1763609;80;21177;-71
2022/05/19 05:16:57;;;;;;;13.47;8.47;;;;;;;13.67;53.49;101243.59;1765507;80;21539;-71
2022/05/19 05:19:24;;;;;;;13.87;8.80;;;;;;;13.74;52.93;101254.90;1754939;80;21249;-71
2022/05/19 05:21:56;;;;;;;15.33;8.37;;;;;;;13.77;53.05;101242.30;1750006;80;21719;-71
2022/05/19 05:24:23;;;;;;;14.87;8.57;;;;;;;13.86;53.17;101244.50;1743291;81;21276;-71
2022/05/19 05:26:50;;;;;;;12.13;8.00;;;;;;;13.97;53.27;101251.52;1768618;80;21350;-70
2022/05/19 05:29:19;;;;;;;13.80;8.07;;;;;;;14.06;52.93;101244.58;1766407;80;21469;-71
2022/05/19 05:31:46;;;;;;;15.77;8.33;;;;;;;14.14;52.80;101258.83;1765511;80;20983;-71
2022/05/19 05:34:13;;;;;;;13.27;8.00;;;;;;;14.23;52.75;101253.22;1765841;80;21043;-69
2022/05/19 05:36:40;;;;;;;14.13;7.97;;;;;;;14.30;52.21;101252.43;1767021;80;21818;-69
2022/05/19 05:39:09;;;;;;;12.47;8.30;;;;;;;14.39;52.32;101246.55;1764893;80;21357;-70
2022/05/19 05:41:38;;;;;;;13.90;8.77;;;;;;;14.48;52.06;101251.14;1763153;80;21193;-70
2022/05/19 05:44:07;;;;;;;13.23;8.30;;;;;;;14.57;51.85;101250.09;1764966;80;21311;-71
2022/05/19 05:46:35;;;;;;;14.33;8.47;;;;;;;14.65;51.25;101262.23;1751646;80;21019;-70
2022/05/19 05:49:02;;;;;;;11.67;7.30;;;;;;;14.68;51.27;101260.35;1759928;81;21349;-70
2022/05/19 05:51:34;;;;;;;13.80;7.90;;;;;;;14.71;51.06;101257.94;1763749;80;21393;-70
2022/05/19 05:54:01;;;;;;;10.87;7.33;;;;;;;14.75;51.11;101252.28;1761166;80;21504;-71
2022/05/19 05:56:28;;;;;;;13.30;7.47;;;;;;;14.84;51.30;101249.88;1760064;80;21228;-71
2022/05/19 05:58:55;;;;;;;12.27;8.23;;;;;;;14.96;50.74;101250.95;1765358;80;21181;-70
2022/05/19 06:01:22;;;;;;;12.70;7.40;;;;;;;15.06;50.59;101257.66;1761654;80;21222;-70
2022/05/19 06:03:49;;;;;;;11.33;7.30;;;;;;;15.15;50.41;101253.36;1764621;80;22101;-71
2022/05/19 06:06:17;;;;;;;14.63;7.90;;;;;;;15.22;50.81;101256.58;1765342;80;21523;-69
2022/05/19 06:08:44;;;;;;;14.60;8.27;;;;;;;15.35;50.50;101262.49;1763677;80;21200;-69
2022/05/19 06:11:12;;;;;;;14.93;7.77;;;;;;;15.44;50.04;101256.83;1764038;80;21379;-69
2022/05/19 06:13:40;;;;;;;11.37;6.90;;;;;;;15.51;49.90;101260.05;1725835;81;21305;-70
2022/05/19 06:16:11;;;;;;;10.30;6.53;;;;;;;15.62;49.77;101260.82;1725898;81;21399;-70
2022/05/19 06:18:38;;;;;;;10.10;6.60;;;;;;;15.67;48.63;101254.12;1708887;81;21793;-68
2022/05/19 06:21:08;;;;;;;10.47;6.90;;;;;;;15.68;48.72;101261.91;1708170;81;21224;-69
2022/05/19 06:23:35;;;;;;;9.53;5.97;;;;;;;15.79;48.68;101264.02;1721790;81;21429;-70
2022/05/19 06:26:04;;;;;;;11.03;6.33;;;;;;;15.79;48.68;101264.02;1726424;81;21781;-70
2022/05/19 06:28:31;;;;;;;12.07;6.83;;;;;;;15.87;48.09;101267.52;1718047;83;21417;-71
2022/05/19 06:30:59;;;;;;;10.13;6.10;;;;;;;15.95;47.92;101263.44;1768017;80;21540;-71
2022/05/19 06:33:28;;;;;;;9.53;6.00;;;;;;;16.16;47.63;101270.91;1769162;80;21470;-71
2022/05/19 06:35:55;;;;;;;10.33;6.57;;;;;;;16.16;47.63;101270.91;1769623;80;21968;-70
2022/05/19 06:38:25;;;;;;;9.33;5.53;;;;;;;16.34;46.65;101271.61;1755762;80;21487;-71
2022/05/19 06:42:00;;;;;;;9.70;5.27;;;;;;;16.43;46.11;101275.89;1756734;80;21395;-70
2022/05/19 06:43:24;;;;;;;9.23;5.50;;;;;;;16.43;46.11;101275.89;1765403;80;21528;-69
2022/05/19 06:45:52;;;;;;;7.17;4.70;;;;;;;16.49;46.10;101274.78;1765160;80;21497;-70
2022/05/19 06:48:19;;;;;;;8.53;4.93;;;;;;;16.58;45.19;101267.72;1767454;80;21536;-69
2022/05/19 06:50:49;;;;;;;7.60;4.70;;;;;;;16.74;44.87;101267.59;1766763;80;22193;-69
2022/05/19 06:53:16;;;;;;;7.20;4.30;;;;;;;16.74;44.87;101267.59;1731476;82;22229;-70
2022/05/19 06:55:48;;;;;;;7.67;4.57;;;;;;;16.80;44.30;101267.85;1718229;82;21663;-69
2022/05/19 06:58:15;;;;;;;8.15;4.85;;;;;;;16.90;44.26;101270.47;1719224;82;22312;-69
2022/05/19 07:00:43;;;;;;;8.40;4.23;;;;;;;16.99;44.22;101277.43;1727092;82;21012;-70
2022/05/19 07:03:11;;;;;;;9.13;4.20;;;;;;;17.04;44.10;101272.77;1713633;82;21747;-70
2022/05/19 07:05:40;;;;;;;6.30;4.00;;;;;;;17.14;44.07;101268.38;1750626;80;22335;-70
2022/05/19 07:08:08;;;;;;;8.43;3.73;;;;;;;17.34;42.16;101266.84;1753526;80;21719;-71
2022/05/19 07:10:38;;;;;;;6.83;3.70;;;;;;;17.34;42.16;101266.84;1763795;80;21696;-70
2022/05/19 07:13:06;;;;;;;6.27;3.63;;;;;;;17.40;42.01;101265.70;1764377;80;21672;-71
2022/05/19 07:15:34;;;;;;;6.40;3.17;;;;;;;17.48;42.47;101263.75;1765626;80;21618;-71
2022/05/19 07:18:01;;;;;;;6.80;3.17;;;;;;;17.63;41.38;101265.47;1754919;80;21692;-71
2022/05/19 07:23:20;;;;;;;7.03;3.10;;;;;;;17.74;40.33;101262.93;1760202;80;22152;-70
2022/05/19 07:25:47;;;;;;;5.87;2.60;;;;;;;17.83;39.87;101261.77;1751720;80;21673;-69
2022/05/19 07:28:14;;;;;;;6.13;2.90;;;;;;;18.07;39.42;101258.26;1764043;80;21744;-71
2022/05/19 07:30:46;;;;;;;3.50;2.40;;;;;;;18.07;39.42;101258.26;1764710;80;21030;-69
2022/05/19 07:33:15;;;;;;;8.05;2.92;;;;;;;18.17;39.26;101250.01;1759201;80;21109;-69
2022/05/19 07:35:46;;;;;;;4.85;2.50;;;;;;;18.28;38.86;101252.81;1753163;80;21023;-71
2022/05/19 07:38:15;;;;;;;4.70;2.27;;;;;;;18.34;38.96;101255.71;1762387;80;21187;-69
2022/05/19 07:40:43;;;;;;;5.47;2.33;;;;;;;18.42;38.23;101247.48;1749696;80;21043;-71
2022/05/19 07:45:59;;;;;;;5.47;2.20;;;;;;;18.57;37.71;101252.67;1762965;80;21248;-71
2022/05/19 07:48:26;;;;;;;3.30;2.00;;;;;;;18.72;37.88;101258.42;1765349;80;21022;-71
2022/05/19 07:50:53;;;;;;;3.50;2.00;;;;;;;18.82;36.92;101244.75;1764727;80;21033;-70
2022/05/19 07:53:22;;;;;;;4.40;2.07;;;;;;;18.91;37.30;101244.86;1763293;80;21128;-71
2022/05/19 07:55:51;;;;;;;4.03;1.30;;;;;;;19.00;36.82;101242.30;1763008;80;21045;-70
2022/05/19 07:58:19;;;;;;;3.03;1.33;;;;;;;19.05;35.41;101236.78;1764723;80;21140;-71
2022/05/19 08:00:46;;;;;;;3.70;1.50;;;;;;;19.06;34.44;101239.76;1763291;80;20923;-72
2022/05/19 08:03:15;;;;;;;5.67;1.20;;;;;;;19.07;34.83;101234.59;1765693;80;21085;-71
2022/05/19 08:05:42;;;;;;;3.67;1.40;;;;;;;19.05;33.53;101234.06;1762165;80;21003;-71
2022/05/19 08:08:09;;;;;;;2.90;1.20;;;;;;;19.01;33.67;101235.22;1765520;80;21070;-71
2022/05/19 08:10:38;;;;;;;2.37;1.30;;;;;;;18.97;34.01;101244.48;1759388;80;21193;-71
2022/05/19 08:15:51;;;;;;;2.63;1.40;;;;;;;19.08;33.36;101227.50;1761301;80;21078;-71
2022/05/19 08:18:22;;;;;;;3.37;1.43;;;;;;;19.11;33.91;101219.34;1763135;81;21050;-70
2022/05/19 08:20:53;;;;;;;5.37;1.98;;;;;;;19.15;34.36;101225.77;1765940;80;21065;-71
2022/05/19 08:23:29;;;;;;;3.97;1.97;;;;;;;19.21;34.10;101230.79;1763680;80;21248;-71
2022/05/19 08:25:56;;;;;;;3.30;1.70;;;;;;;19.28;33.77;101215.53;1754905;80;20995;-70
2022/05/19 08:28:29;;;;;;;3.97;1.80;;;;;;;19.31;33.81;101224.38;1757778;80;21097;-72
2022/05/19 08:30:54;;;;;;;5.00;1.77;;;;;;;19.33;33.72;101220.04;1765144;80;21323;-71
2022/05/19 08:33:22;;;;;;;4.17;2.23;;;;;;;19.36;34.15;101214.82;1749473;81;21599;-71
2022/05/19 08:35:49;;;;;;;4.47;2.10;;;;;;;19.45;34.32;101213.03;1757941;80;21283;-70
2022/05/19 08:38:18;;;;;;;4.90;2.03;;;;;;;19.59;34.80;101214.94;1763167;80;21134;-70
2022/05/19 08:41:05;;;;;;;4.37;1.60;;;;;;;19.71;33.76;101212.56;1765594;80;21094;-70
2022/05/19 08:43:40;;;;;;;6.80;2.70;;;;;;;19.76;33.46;101204.31;1752085;80;20944;-71
2022/05/19 08:46:09;;;;;;;5.30;2.10;;;;;;;19.75;33.88;101206.78;1758066;80;21113;-69
2022/05/19 08:48:36;;;;;;;5.50;2.30;;;;;;;19.79;33.86;101206.41;1764500;80;21118;-71
2022/05/19 08:51:07;;;;;;;3.90;1.90;;;;;;;19.83;33.73;101201.98;1728837;81;21462;-71
2022/05/19 08:53:37;;;;;;;4.00;2.40;;;;;;;19.88;33.88;101202.45;1761912;80;21026;-71
2022/05/19 08:56:32;;;;;;;6.00;2.70;;;;;;;19.90;34.16;101194.80;1742922;80;21022;-71
2022/05/19 08:59:24;;;;;;;5.63;2.20;;;;;;;19.91;34.36;101204.55;1766528;80;20978;-70
2022/05/19 09:02:09;;;;;;;5.77;2.13;;;;;;;19.97;33.96;101195.73;1671891;84;21244;-69
2022/05/19 09:05:14;;;;;;;6.13;2.53;;;;;;;20.03;33.34;101205.37;1703573;82;21109;-69
2022/05/19 09:08:10;;;;;;;4.50;2.10;;;;;;;20.03;33.64;101199.95;1717599;82;21004;-70
2022/05/19 09:11:17;;;;;;;5.70;2.30;;;;;;;20.10;33.71;101200.33;1716148;82;21089;-71
2022/05/19 09:14:22;;;;;;;6.27;2.30;;;;;;;20.23;33.70;101201.39;1716297;82;20943;-70
2022/05/19 09:16:53;;;;;;;4.50;2.30;;;;;;;20.41;32.81;101191.51;1708370;82;21329;-72
2022/05/19 09:19:43;;;;;;;5.43;2.00;;;;;;;20.40;32.69;101192.06;1711145;82;21534;-71
2022/05/19 09:22:19;;;;;;;6.27;2.33;;;;;;;20.42;32.89;101191.75;1726029;81;21111;-71
2022/05/19 09:24:48;;;;;;;3.67;2.13;;;;;;;20.50;32.58;101186.92;1762957;80;21045;-70
2022/05/19 09:27:16;;;;;;;7.17;2.77;;;;;;;20.59;32.41;101184.55;1751197;80;20999;-71
2022/05/19 09:29:49;;;;;;;5.43;2.70;;;;;;;20.70;32.77;101182.41;1764170;80;21864;-71
2022/05/19 09:32:30;;;;;;;5.70;2.47;;;;;;;20.81;32.47;101189.17;1761372;80;20940;-71
2022/05/19 09:35:22;;;;;;;6.83;2.90;;;;;;;20.88;32.11;101181.14;1765116;80;20959;-72
2022/05/19 09:38:18;;;;;;;4.27;2.50;;;;;;;20.95;32.37;101188.28;1676598;83;21043;-71
2022/05/19 09:40:40;;;;;;;6.80;2.90;;;;;;;20.97;31.50;101171.13;1706222;82;21000;-72
2022/05/19 09:43:33;;;;;;;5.50;3.10;;;;;;;20.96;31.08;101179.02;1736492;82;21912;-72
2022/05/19 09:46:14;;;;;;;6.50;2.90;;;;;;;20.92;31.13;101173.41;1735454;82;21128;-72
2022/05/19 09:48:48;;;;;;;6.90;2.90;;;;;;;20.92;31.11;101168.53;1731368;82;21045;-70
2022/05/19 09:51:18;;;;;;;7.73;3.10;;;;;;;20.98;31.24;101160.50;1752652;80;20947;-72
2022/05/19 09:53:54;;;;;;;4.87;2.73;;;;;;;21.07;31.62;101170.30;1760663;80;20951;-70
2022/05/19 09:56:27;;;;;;;6.17;3.30;;;;;;;21.14;31.09;101161.70;1766211;80;21097;-70
2022/05/19 09:59:09;;;;;;;7.50;3.10;;;;;;;21.12;31.04;101159.05;1752421;80;21054;-69
2022/05/19 10:01:39;;;;;;;6.40;2.77;;;;;;;21.10;31.04;101168.08;1750958;81;21442;-70
2022/05/19 10:04:26;;;;;;;5.97;2.90;;;;;;;21.21;30.23;101153.89;1763229;80;21691;-69
2022/05/19 10:06:57;;;;;;;7.30;3.20;;;;;;;21.21;30.23;101153.89;1758869;80;21644;-70
2022/05/19 10:09:32;;;;;;;4.63;2.97;;;;;;;21.27;30.63;101151.28;1770126;80;21366;-70
2022/05/19 10:12:11;;;;;;;5.07;2.80;;;;;;;21.33;30.25;101156.59;1752470;80;21002;-71
2022/05/19 10:14:40;;;;;;;4.93;3.00;;;;;;;21.35;30.00;101153.80;1766046;80;21045;-72
2022/05/19 10:17:28;;;;;;;4.83;2.47;;;;;;;21.39;30.35;101139.02;1765757;80;21045;-70
2022/05/19 10:20:24;;;;;;;5.80;2.50;;;;;;;21.44;29.40;101140.25;1765062;80;21513;-71
2022/05/19 10:23:18;;;;;;;5.73;2.63;;;;;;;21.49;29.28;101143.63;1764662;80;21094;-70
2022/05/19 10:26:03;;;;;;;6.20;2.80;;;;;;;21.54;29.38;101132.59;1764115;80;20998;-71
2022/05/19 10:31:51;;;;;;;5.93;2.93;;;;;;;21.64;29.08;101135.57;1763156;80;20963;-70
2022/05/19 10:34:50;;;;;;;7.27;3.37;;;;;;;21.69;28.70;101134.64;1766512;80;21038;-70
2022/05/19 10:37:45;;;;;;;8.27;3.60;;;;;;;21.66;29.08;101125.75;1765779;80;21378;-71
2022/05/19 10:40:38;;;;;;;6.63;3.53;;;;;;;21.67;29.46;101125.98;1765989;80;20979;-71
2022/05/19 10:43:34;;;;;;;5.07;2.93;;;;;;;21.66;29.06;101121.11;1760317;80;21033;-69
2022/05/19 10:46:02;;;;;;;7.20;2.43;;;;;;;21.67;29.21;101129.50;1755972;80;21041;-69
2022/05/19 10:48:59;;;;;;;6.30;2.77;;;;;;;21.68;28.08;101123.50;1749986;81;21015;-69
2022/05/19 10:51:39;;;;;;;8.53;3.00;;;;;;;21.74;27.36;101108.64;1763137;80;21143;-69
2022/05/19 10:54:43;;;;;;;5.47;2.90;;;;;;;21.86;28.30;101118.33;1765480;80;20923;-70
2022/05/19 10:57:40;;;;;;;9.97;3.20;;;;;;;21.95;28.14;101113.70;1750343;80;21446;-69
2022/05/19 11:00:19;;;;;;;7.20;3.10;;;;;;;21.99;28.87;101109.78;1760092;81;21086;-69
2022/05/19 11:03:39;;;;;;;7.87;3.50;;;;;;;21.99;28.67;101115.22;1759844;80;21072;-69
2022/05/19 11:06:42;;;;;;;7.37;2.93;;;;;;;22.00;28.64;101104.00;1742148;81;21510;-70
2022/05/19 11:09:42;;;;;;;7.27;3.00;;;;;;;22.01;28.05;101098.83;1763643;80;21473;-70
2022/05/19 11:12:29;;;;;;;7.03;3.10;;;;;;;22.08;28.26;101109.22;1713893;82;21110;-70
2022/05/19 11:15:27;;;;;;;6.23;3.20;;;;;;;22.22;28.57;101085.94;1710681;82;21490;-71
2022/05/19 11:18:09;;;;;;;4.23;2.50;;;;;;;22.36;27.88;101089.83;1708422;82;21034;-70
2022/05/19 11:20:54;;;;;;;5.80;2.52;;;;;;;22.45;26.12;101076.45;1715191;82;21725;-69
2022/05/19 11:23:32;;;;;;;5.83;3.10;;;;;;;22.52;26.09;101068.34;1715673;82;21083;-69
2022/05/19 11:26:27;;;;;;;6.57;3.00;;;;;;;22.59;26.60;101070.80;1713727;83;20928;-70
2022/05/19 11:29:04;;;;;;;6.10;2.87;;;;;;;22.70;27.20;101067.14;1716323;83;21517;-71
2022/05/19 11:31:39;;;;;;;7.97;3.07;;;;;;;22.86;26.25;101075.58;1716485;83;21087;-71
2022/05/19 11:34:30;;;;;;;8.13;2.93;;;;;;;22.90;25.64;101064.25;1718551;82;21519;-70
2022/05/19 11:37:19;;;;;;;4.83;2.62;;;;;;;22.85;25.64;101061.73;1716506;83;21071;-71
2022/05/19 11:40:06;;;;;;;6.93;2.83;;;;;;;22.90;26.48;101066.97;1701095;82;20976;-70
2022/05/19 11:42:52;;;;;;;6.77;3.10;;;;;;;22.99;26.00;101054.14;1714907;82;21008;-70
2022/05/19 11:45:30;;;;;;;6.37;2.40;;;;;;;23.17;26.21;101047.48;1701926;82;21062;-71
2022/05/19 11:55:12;;;;;;;4.37;2.20;;;;;;;23.80;25.05;101050.25;1716220;82;21051;-70
2022/05/19 11:58:23;;;;;;;7.30;1.80;;;;;;;23.84;25.47;101052.53;1764400;80;21477;-71
2022/05/19 12:01:00;;;;;;;12.33;2.27;;;;;;;23.74;24.70;101037.16;1743782;81;20991;-71
2022/05/19 12:03:37;;;;;;;3.70;1.50;;;;;;;23.82;24.62;101033.00;1750187;80;21613;-70
2022/05/19 12:06:13;;;;;;;6.57;2.13;;;;;;;23.83;24.01;101032.42;1761663;80;21100;-70
2022/05/19 12:09:00;;;;;;;4.47;2.03;;;;;;;23.85;24.88;101027.41;1760596;80;21560;-71
2022/05/19 12:11:45;;;;;;;5.07;2.10;;;;;;;23.98;24.30;101056.34;1765232;80;21590;-71